Murray, KY (42071)

1:57 AM CST on February 06, 2016 (GMT -0600)
APRSWXNET | | Change Station
CLOSE
Current Station
Personal Weather Station
Location: Murray, KY
Elevation: 413 ft
Nearby Weather Stations

Elev 413 ft 36.62 °N, 88.18 °W | Updated 21 minutes ago

Clear
Clear
27 °F
Feels Like 27 °F
N
0
Wind Variable Wind from SW
Gusts 0.0 mph

Today
High -- | Low -- °F
--% Chance of Precip.
Yesterday
High -- | Low -- °F
Precip. -- in
Pressure 30.35 in
Visibility 10.0 miles
Clouds Clear
Windchill 27 °F
Dew Point 24 °F
Humidity 90%
Rainfall in
Snow Depth Not available.
6:50 AM 5:23 PM
Waning Crescent, 7% visible
METAR KCEY 060755Z AUTO 22006KT 10SM CLR 02/M07 A3035 RMK AO1
Pressure 30.35 in
Visibility 10.0 miles
Clouds Clear
Windchill 27 °F
Dew Point 24 °F
Humidity 90%
Rainfall in
Snow Depth Not available.
6:50 AM 5:23 PM
Waning Crescent, 7% visible
METAR KCEY 060755Z AUTO 22006KT 10SM CLR 02/M07 A3035 RMK AO1

10-Day Weather Forecast

Almanac

Astronomy

Feb. 06, 2016 Rise Set
Actual Time
Civil Twilight
Nautical Twilight
Astronomical Twilight
Moon
Length of Visible Light
Length of Day
Tomorrow will be .
, % of the Moon is Illuminated

Today's Extremes

State Highs State Lows

Community

WunderPhotos

Upload Photos

1,890,933 photos uploaded!

WunderBlog® & News

Nearby

Air Quality

  Air Quality AQ Index Pollutant
Not available.

Snow Depth

Station Depth Elevation

Earthquake Activity

City Distance Mag. Time & Date
Minimum magnitude displayed is 2.5.

Coastal Water Temperatures

Place Temperature

Stations

Nearby Weather Stations

Station Location Temp. Windchill Dew Point Humidity Wind Precip. Elev Updated Type
                   

Watches & Warnings

There are currently no watches in effect.